createdAt,value
2018-01-07T00:02:21.545Z,33.85
2018-01-07T00:04:51.298Z,29.37
2018-01-07T00:07:20.501Z,28.98
2018-01-07T00:09:51.566Z,22.75
2018-01-07T00:12:21.601Z,30.85
2018-01-07T00:14:50.584Z,30.52
2018-01-07T00:17:19.738Z,28.23
2018-01-07T00:19:48.681Z,28.08
2018-01-07T00:22:17.919Z,38.05
2018-01-07T00:24:48.948Z,30.17
2018-01-07T00:27:18.000Z,26.33
2018-01-07T00:29:47.366Z,25.15
2018-01-07T00:32:19.618Z,25.77
2018-01-07T00:34:48.897Z,24.92
2018-01-07T00:37:20.388Z,25.33
2018-01-07T00:39:50.442Z,27.52
2018-01-07T00:42:23.583Z,28.08
2018-01-07T00:44:52.648Z,20.17
2018-01-07T00:47:22.417Z,25.73
2018-01-07T00:49:52.241Z,18.00
2018-01-07T00:52:21.243Z,16.90
2018-01-07T00:54:51.906Z,18.40
2018-01-07T00:57:23.633Z,15.73
2018-01-07T00:59:52.725Z,19.13
2018-01-07T01:02:21.993Z,23.60
2018-01-07T01:04:53.783Z,18.80
2018-01-07T01:07:23.305Z,20.83
2018-01-07T01:09:59.105Z,17.63
2018-01-07T01:12:28.549Z,19.03
2018-01-07T01:14:59.036Z,17.57
2018-01-07T01:17:29.034Z,19.77
2018-01-07T01:19:58.121Z,19.70
2018-01-07T01:22:27.226Z,20.90
2018-01-07T01:24:57.256Z,22.57
2018-01-07T01:27:27.450Z,21.70
2018-01-07T01:29:57.012Z,22.87
2018-01-07T01:32:33.705Z,17.43
2018-01-07T01:35:03.303Z,15.73
2018-01-07T01:37:33.432Z,14.40
2018-01-07T01:40:02.438Z,14.40
2018-01-07T01:42:31.570Z,13.80
2018-01-07T01:45:01.672Z,17.07
2018-01-07T01:47:31.972Z,18.40
2018-01-07T01:50:01.174Z,23.10
2018-01-07T01:52:30.313Z,17.77
2018-01-07T01:54:59.418Z,17.37
2018-01-07T01:57:28.562Z,19.40
2018-01-07T01:59:57.547Z,19.60
2018-01-07T02:02:27.598Z,18.37
2018-01-07T02:04:57.651Z,17.80
2018-01-07T02:07:27.742Z,18.10
2018-01-07T02:09:58.063Z,20.07
2018-01-07T02:12:27.363Z,18.47
2018-01-07T02:14:56.567Z,18.70
2018-01-07T02:17:25.546Z,18.23
2018-01-07T02:19:55.981Z,17.97
2018-01-07T02:22:25.850Z,16.00
2018-01-07T02:24:55.812Z,21.57
2018-01-07T02:27:25.023Z,22.73
2018-01-07T02:29:55.355Z,22.27
2018-01-07T02:32:24.546Z,17.60
2018-01-07T02:34:53.555Z,18.90
2018-01-07T02:37:23.777Z,19.53
2018-01-07T02:39:53.096Z,19.90
2018-01-07T02:42:22.110Z,17.80
2018-01-07T02:44:52.865Z,21.53
2018-01-07T02:47:21.849Z,20.20
2018-01-07T02:49:51.814Z,18.43
2018-01-07T02:52:22.604Z,17.77
2018-01-07T02:54:52.825Z,17.93
2018-01-07T02:57:21.908Z,16.60
2018-01-07T02:59:52.745Z,22.70
2018-01-07T03:02:22.669Z,18.10
2018-01-07T03:04:52.207Z,17.50
2018-01-07T03:07:23.240Z,17.95
2018-01-07T03:09:54.285Z,22.30
2018-01-07T03:12:27.033Z,18.60
2018-01-07T03:14:57.152Z,27.10
2018-01-07T03:17:28.934Z,20.57
2018-01-07T03:19:58.824Z,21.48
2018-01-07T03:22:27.781Z,21.60
2018-01-07T03:24:57.118Z,20.57
2018-01-07T03:27:26.216Z,21.33
2018-01-07T03:29:55.211Z,19.60
2018-01-07T03:32:28.154Z,21.40
2018-01-07T03:34:57.113Z,19.30
2018-01-07T03:37:26.203Z,23.90
2018-01-07T03:39:56.027Z,19.45
2018-01-07T03:42:26.121Z,24.73
2018-01-07T03:44:56.858Z,18.30
2018-01-07T03:47:25.966Z,21.80
2018-01-07T03:49:55.074Z,22.77
2018-01-07T03:52:24.156Z,23.27
2018-01-07T03:54:53.247Z,26.50
2018-01-07T03:57:22.169Z,33.50
2018-01-07T03:59:52.152Z,30.70
2018-01-07T04:02:21.121Z,27.23
2018-01-07T04:04:50.335Z,27.07
2018-01-07T04:07:20.263Z,27.77
2018-01-07T04:09:49.403Z,22.80
2018-01-07T04:12:18.500Z,19.33
2018-01-07T04:14:49.503Z,21.50
2018-01-07T04:17:18.485Z,23.37
2018-01-07T04:19:47.427Z,29.73
2018-01-07T04:22:17.330Z,17.37
2018-01-07T04:24:46.426Z,22.27
2018-01-07T04:27:16.307Z,23.70
2018-01-07T04:29:46.270Z,21.43
2018-01-07T04:32:22.123Z,27.00
2018-01-07T04:34:51.230Z,19.90
2018-01-07T04:37:20.324Z,24.10
2018-01-07T04:39:49.529Z,21.20
2018-01-07T04:42:18.519Z,18.27
2018-01-07T04:44:48.415Z,20.13
2018-01-07T04:47:18.107Z,16.87
2018-01-07T04:49:48.765Z,17.57
2018-01-07T04:52:17.933Z,17.47
2018-01-07T04:54:46.908Z,18.17
2018-01-07T04:57:18.357Z,19.43
2018-01-07T04:59:47.472Z,17.43
2018-01-07T05:02:17.980Z,20.00
2018-01-07T05:04:47.202Z,17.83
2018-01-07T05:07:17.728Z,19.00
2018-01-07T05:09:46.826Z,23.97
2018-01-07T05:12:19.339Z,18.77
2018-01-07T05:14:48.536Z,19.93
2018-01-07T05:17:17.477Z,23.40
2018-01-07T05:19:46.594Z,22.00
2018-01-07T05:22:15.782Z,21.67
2018-01-07T05:24:45.745Z,20.97
2018-01-07T05:27:14.885Z,25.37
2018-01-07T05:29:45.778Z,22.03
2018-01-07T05:32:14.917Z,20.80
2018-01-07T05:34:46.742Z,19.67
2018-01-07T05:37:15.720Z,25.53
2018-01-07T05:39:44.631Z,29.00
2018-01-07T05:42:13.929Z,27.70
2018-01-07T05:44:42.819Z,32.10
2018-01-07T05:47:11.705Z,22.90
2018-01-07T05:49:40.951Z,20.40
2018-01-07T05:52:10.063Z,20.80
2018-01-07T05:54:39.960Z,19.63
2018-01-07T05:57:10.099Z,19.37
2018-01-07T05:59:40.098Z,24.50
2018-01-07T06:02:09.187Z,22.13
2018-01-07T06:04:38.304Z,18.80
2018-01-07T06:07:08.322Z,19.17
2018-01-07T06:09:37.299Z,15.33
2018-01-07T06:12:07.317Z,18.47
2018-01-07T06:14:36.272Z,17.77
2018-01-07T06:17:05.422Z,18.97
2018-01-07T06:19:35.218Z,16.10
2018-01-07T06:22:04.232Z,17.97
2018-01-07T06:24:34.153Z,18.40
2018-01-07T06:27:03.342Z,19.47
2018-01-07T06:29:32.282Z,18.40
2018-01-07T06:32:01.308Z,17.53
2018-01-07T06:34:30.428Z,19.80
2018-01-07T06:36:59.520Z,17.20
2018-01-07T06:39:29.427Z,25.50
2018-01-07T06:41:58.769Z,15.77
2018-01-07T06:44:28.427Z,24.20
2018-01-07T06:46:57.388Z,31.57
2018-01-07T06:49:27.990Z,42.77
2018-01-07T06:51:57.013Z,47.07
2018-01-07T06:54:26.985Z,50.23
2018-01-07T06:56:58.718Z,39.00
2018-01-07T06:59:27.869Z,41.50
2018-01-07T07:01:56.976Z,40.37
2018-01-07T07:04:26.475Z,37.57
2018-01-07T07:06:55.639Z,40.03
2018-01-07T07:09:24.571Z,33.67
2018-01-07T07:11:54.625Z,29.80
2018-01-07T07:14:23.639Z,28.30
2018-01-07T07:16:52.756Z,29.53
2018-01-07T07:19:27.328Z,28.50
2018-01-07T07:21:57.578Z,38.03
2018-01-07T07:24:26.504Z,30.40
2018-01-07T07:27:00.388Z,29.33
2018-01-07T07:29:30.401Z,29.67
2018-01-07T07:31:59.427Z,21.77
2018-01-07T07:34:28.514Z,16.17
2018-01-07T07:36:57.636Z,15.80
2018-01-07T07:39:26.635Z,13.17
2018-01-07T07:41:56.046Z,16.47
2018-01-07T07:44:25.120Z,18.30
2018-01-07T07:46:54.019Z,17.27
2018-01-07T07:49:23.316Z,12.53
2018-01-07T07:51:52.484Z,14.00
2018-01-07T07:54:21.411Z,17.50
2018-01-07T07:56:58.255Z,13.37
2018-01-07T07:59:27.136Z,16.53
2018-01-07T08:01:56.152Z,15.77
2018-01-07T08:04:25.333Z,21.80
2018-01-07T08:06:54.239Z,16.73
2018-01-07T08:09:24.110Z,17.07
2018-01-07T08:11:54.075Z,16.50
2018-01-07T08:14:25.000Z,16.37
2018-01-07T08:16:56.975Z,17.67
2018-01-07T08:19:26.068Z,15.90
2018-01-07T08:21:55.270Z,23.83
2018-01-07T08:24:25.401Z,19.43
2018-01-07T08:26:54.418Z,19.03
2018-01-07T08:29:23.420Z,24.43
2018-01-07T08:31:52.311Z,21.60
2018-01-07T08:34:21.323Z,18.23
2018-01-07T08:36:50.358Z,21.43
2018-01-07T08:39:19.309Z,19.23
2018-01-07T08:41:49.982Z,19.70
2018-01-07T08:44:19.841Z,18.10
2018-01-07T08:46:48.792Z,26.40
2018-01-07T08:49:17.929Z,25.07
2018-01-07T08:51:46.966Z,22.27
2018-01-07T08:54:16.797Z,27.03
2018-01-07T08:56:52.785Z,19.20
2018-01-07T08:59:24.952Z,21.30
2018-01-07T09:01:54.662Z,22.83
2018-01-07T09:04:23.715Z,23.60
2018-01-07T09:06:52.686Z,22.20
2018-01-07T09:09:23.689Z,21.30
2018-01-07T09:11:54.831Z,22.00
2018-01-07T09:14:24.387Z,26.30
2018-01-07T09:16:54.361Z,24.87
2018-01-07T09:19:23.517Z,23.47
2018-01-07T09:21:52.751Z,29.20
2018-01-07T09:24:22.439Z,25.80
2018-01-07T09:26:51.431Z,21.20
2018-01-07T09:29:20.450Z,20.87
2018-01-07T09:31:49.648Z,23.40
2018-01-07T09:34:19.131Z,21.93
2018-01-07T09:36:48.250Z,19.83
2018-01-07T09:39:18.064Z,22.37
2018-01-07T09:41:47.110Z,22.30
2018-01-07T09:44:16.124Z,26.27
2018-01-07T09:46:45.149Z,24.00
2018-01-07T09:49:14.078Z,27.30
2018-01-07T09:51:43.167Z,31.97
2018-01-07T09:54:13.457Z,22.97
2018-01-07T09:56:44.113Z,21.43
2018-01-07T09:59:13.122Z,21.80
2018-01-07T10:01:42.083Z,22.33
2018-01-07T10:04:16.406Z,20.63
2018-01-07T10:06:47.071Z,18.10
2018-01-07T10:09:16.066Z,20.17
2018-01-07T10:11:46.042Z,19.70
2018-01-07T10:14:15.956Z,28.90
2018-01-07T10:16:45.022Z,20.20
2018-01-07T10:19:14.095Z,24.27
2018-01-07T10:21:43.862Z,23.80
2018-01-07T10:24:13.264Z,20.53
2018-01-07T10:26:42.328Z,22.70
2018-01-07T10:29:12.069Z,22.53
2018-01-07T10:31:41.171Z,28.80
2018-01-07T10:34:11.806Z,21.80
2018-01-07T10:36:43.739Z,26.03
2018-01-07T10:39:16.624Z,30.83
2018-01-07T10:41:46.363Z,23.07
2018-01-07T10:44:16.448Z,26.20
2018-01-07T10:46:50.180Z,21.77
2018-01-07T10:49:19.177Z,25.10
2018-01-07T10:51:49.201Z,26.63
2018-01-07T10:54:18.493Z,26.43
2018-01-07T10:56:48.293Z,27.77
2018-01-07T10:59:17.297Z,31.73
2018-01-07T11:01:52.032Z,25.83
2018-01-07T11:04:21.022Z,25.60
2018-01-07T11:06:49.954Z,22.70
2018-01-07T11:09:19.096Z,21.30
2018-01-07T11:11:50.061Z,31.50
2018-01-07T11:14:20.888Z,24.80
2018-01-07T11:16:55.085Z,25.80
2018-01-07T11:19:23.975Z,26.20
2018-01-07T11:21:53.792Z,22.63
2018-01-07T11:24:25.586Z,30.80
2018-01-07T11:26:54.646Z,28.63
2018-01-07T11:29:23.741Z,26.10
2018-01-07T11:31:52.825Z,33.57
2018-01-07T11:34:21.831Z,28.63
2018-01-07T11:36:51.726Z,30.70
2018-01-07T11:39:23.554Z,24.67
2018-01-07T11:41:52.551Z,31.70
2018-01-07T11:44:21.539Z,22.53
2018-01-07T11:46:51.819Z,40.73
2018-01-07T11:49:22.695Z,26.83
2018-01-07T11:51:51.650Z,29.23
2018-01-07T11:54:25.941Z,29.23
2018-01-07T11:56:54.860Z,27.60
2018-01-07T11:59:25.799Z,29.43
2018-01-07T12:01:54.790Z,33.70
2018-01-07T12:04:26.448Z,25.33
2018-01-07T12:06:57.067Z,24.23
2018-01-07T12:09:26.812Z,27.77
2018-01-07T12:11:55.784Z,26.67
2018-01-07T12:14:26.785Z,25.97
2018-01-07T12:17:00.698Z,21.83
2018-01-07T12:19:29.816Z,22.20
2018-01-07T12:21:58.721Z,30.83
2018-01-07T12:24:28.638Z,26.80
2018-01-07T12:26:57.631Z,30.33
2018-01-07T12:29:26.524Z,25.03
2018-01-07T12:31:55.662Z,26.97
2018-01-07T12:34:25.473Z,24.83
2018-01-07T12:36:54.527Z,25.73
2018-01-07T12:39:23.522Z,28.77
2018-01-07T12:41:52.515Z,21.23
2018-01-07T12:44:22.565Z,22.30
2018-01-07T12:46:52.510Z,21.33
2018-01-07T12:49:21.652Z,16.20
2018-01-07T12:51:50.746Z,22.60
2018-01-07T12:54:19.738Z,24.47
2018-01-07T12:56:52.585Z,23.73
2018-01-07T12:59:21.618Z,16.83
2018-01-07T13:01:50.498Z,19.97
2018-01-07T13:04:19.505Z,19.03
2018-01-07T13:06:48.565Z,19.20
2018-01-07T13:09:20.217Z,21.40
2018-01-07T13:11:49.594Z,19.47
2018-01-07T13:14:20.234Z,20.07
2018-01-07T13:16:49.995Z,23.63
2018-01-07T13:19:20.018Z,27.93
2018-01-07T13:21:49.274Z,23.60
2018-01-07T13:24:18.375Z,22.90
2018-01-07T13:26:47.653Z,19.20
2018-01-07T13:29:16.566Z,19.43
2018-01-07T13:31:45.602Z,24.40
2018-01-07T13:34:16.236Z,21.03
2018-01-07T13:36:46.053Z,23.70
2018-01-07T13:39:16.062Z,27.10
2018-01-07T13:41:45.056Z,20.70
2018-01-07T13:44:14.974Z,21.03
2018-01-07T13:46:44.684Z,23.43
2018-01-07T13:49:15.585Z,22.27
2018-01-07T13:51:44.554Z,20.97
2018-01-07T13:54:13.513Z,17.60
2018-01-07T13:56:45.988Z,23.93
2018-01-07T13:59:15.146Z,30.27
2018-01-07T14:01:46.944Z,19.50
2018-01-07T14:04:16.043Z,27.37
2018-01-07T14:06:45.037Z,18.93
2018-01-07T14:09:16.468Z,19.47
2018-01-07T14:11:46.498Z,19.77
2018-01-07T14:14:15.599Z,18.30
2018-01-07T14:16:45.694Z,22.33
2018-01-07T14:19:15.773Z,20.10
2018-01-07T14:21:44.730Z,20.13
2018-01-07T14:24:15.519Z,23.73
2018-01-07T14:26:44.775Z,19.37
2018-01-07T14:29:14.621Z,17.50
2018-01-07T14:31:44.592Z,21.30
2018-01-07T14:34:14.572Z,22.33
2018-01-07T14:36:46.588Z,21.60
2018-01-07T14:39:17.116Z,18.70
2018-01-07T14:41:46.559Z,15.63
2018-01-07T14:44:18.021Z,15.87
2018-01-07T14:46:47.782Z,15.77
2018-01-07T14:49:16.816Z,17.50
2018-01-07T14:51:46.050Z,19.10
2018-01-07T14:54:14.936Z,27.73
2018-01-07T14:56:44.872Z,23.90
2018-01-07T14:59:14.355Z,30.57
2018-01-07T15:01:44.793Z,26.20
2018-01-07T15:04:14.330Z,32.70
2018-01-07T15:06:43.701Z,42.80
2018-01-07T15:09:12.824Z,28.20
2018-01-07T15:11:43.271Z,30.97
2018-01-07T15:14:12.608Z,34.50
2018-01-07T15:16:42.158Z,33.10
2018-01-07T15:19:15.094Z,32.20
2018-01-07T15:21:44.319Z,32.27
2018-01-07T15:24:13.483Z,42.37
2018-01-07T15:26:43.579Z,43.07
2018-01-07T15:29:13.055Z,43.03
2018-01-07T15:31:41.956Z,45.30
2018-01-07T15:34:11.163Z,43.57
2018-01-07T15:36:40.991Z,43.03
2018-01-07T15:39:10.543Z,49.00
2018-01-07T15:41:45.512Z,59.03
2018-01-07T15:44:14.975Z,71.60
2018-01-07T15:46:45.251Z,75.77
2018-01-07T15:49:20.073Z,67.77
2018-01-07T15:51:49.406Z,70.20
2018-01-07T15:54:19.554Z,65.63
2018-01-07T15:56:49.817Z,59.73
2018-01-07T15:59:19.221Z,53.07
2018-01-07T16:01:48.643Z,55.30
2018-01-07T16:04:18.027Z,56.43
2018-01-07T16:06:47.588Z,47.67
2018-01-07T16:09:16.717Z,45.50
2018-01-07T16:11:46.749Z,38.67
2018-01-07T16:14:16.064Z,39.73
2018-01-07T16:16:45.541Z,43.30
2018-01-07T16:19:16.773Z,49.80
2018-01-07T16:21:45.909Z,48.70
2018-01-07T16:24:15.325Z,49.83
2018-01-07T16:26:46.475Z,47.50
2018-01-07T16:29:15.908Z,48.43
2018-01-07T16:31:44.966Z,69.90
2018-01-07T16:34:15.878Z,76.00
2018-01-07T16:36:45.274Z,69.37
2018-01-07T16:39:16.193Z,76.43
2018-01-07T16:41:46.392Z,109.73
2018-01-07T16:44:15.649Z,132.03
2018-01-07T16:46:45.260Z,151.83
2018-01-07T16:49:14.771Z,128.10
2018-01-07T16:51:44.892Z,134.07
2018-01-07T16:54:14.096Z,106.03
2018-01-07T16:56:43.176Z,89.97
2018-01-07T16:59:12.687Z,74.10
2018-01-07T17:01:41.997Z,72.23
2018-01-07T17:04:12.865Z,64.30
2018-01-07T17:06:41.761Z,39.90
2018-01-07T17:09:10.772Z,33.70
2018-01-07T17:11:39.748Z,34.40
2018-01-07T17:14:08.655Z,42.40
2018-01-07T17:16:37.674Z,36.10
2018-01-07T17:19:06.634Z,51.63
2018-01-07T17:21:35.559Z,38.67
2018-01-07T17:24:04.531Z,35.97
2018-01-07T17:27:08.231Z,40.87
2018-01-07T17:29:38.640Z,45.67
2018-01-07T17:32:08.769Z,55.10
2018-01-07T17:34:38.184Z,49.53
2018-01-07T17:37:07.371Z,44.10
2018-01-07T17:39:36.752Z,46.83
2018-01-07T17:42:06.018Z,35.10
2018-01-07T17:44:35.131Z,35.57
2018-01-07T17:47:05.243Z,36.87
2018-01-07T17:49:36.801Z,30.97
2018-01-07T17:52:06.350Z,27.83
2018-01-07T17:54:35.760Z,37.47
2018-01-07T17:57:05.149Z,37.63
2018-01-07T17:59:35.055Z,55.80
2018-01-07T18:02:05.414Z,49.53
2018-01-07T18:04:34.604Z,45.50
2018-01-07T18:07:04.836Z,29.10
2018-01-07T18:09:34.007Z,28.23
2018-01-07T18:12:03.683Z,30.00
2018-01-07T18:14:34.541Z,30.43
2018-01-07T18:17:04.684Z,23.20
2018-01-07T18:19:34.805Z,21.90
2018-01-07T18:22:05.018Z,21.10
2018-01-07T18:24:34.343Z,23.73
2018-01-07T18:27:03.536Z,19.37
2018-01-07T18:29:37.284Z,23.20
2018-01-07T18:32:06.282Z,22.40
2018-01-07T18:34:36.402Z,18.57
2018-01-07T18:37:05.697Z,20.13
2018-01-07T18:39:35.443Z,19.67
2018-01-07T18:42:04.713Z,30.03
2018-01-07T18:44:34.058Z,20.77
2018-01-07T18:47:03.172Z,19.90
2018-01-07T18:49:33.634Z,18.53
2018-01-07T18:52:03.034Z,19.37
2018-01-07T18:54:32.857Z,18.60
2018-01-07T18:57:01.984Z,20.37
2018-01-07T18:59:31.110Z,17.40
2018-01-07T19:02:01.185Z,19.80
2018-01-07T19:04:30.245Z,21.73
2018-01-07T19:07:00.149Z,21.63
2018-01-07T19:09:29.973Z,22.23
2018-01-07T19:11:58.906Z,24.70
2018-01-07T19:14:28.066Z,19.43
2018-01-07T19:16:57.145Z,21.20
2018-01-07T19:19:26.994Z,19.60
2018-01-07T19:21:56.976Z,20.13
2018-01-07T19:24:27.434Z,19.00
2018-01-07T19:26:56.534Z,13.90
2018-01-07T19:29:28.293Z,17.10
2018-01-07T19:31:57.527Z,15.63
2018-01-07T19:34:26.479Z,15.90
2018-01-07T19:36:55.502Z,16.00
2018-01-07T19:39:24.689Z,17.03
2018-01-07T19:41:53.867Z,18.97
2018-01-07T19:44:25.254Z,17.40
2018-01-07T19:46:54.466Z,15.17
2018-01-07T19:49:24.268Z,15.50
2018-01-07T19:51:55.181Z,13.27
2018-01-07T19:54:24.111Z,15.90
2018-01-07T19:56:52.978Z,13.70
2018-01-07T19:59:24.404Z,14.50
2018-01-07T20:01:54.558Z,18.27
2018-01-07T20:04:23.848Z,15.90
2018-01-07T20:06:52.907Z,21.87
2018-01-07T20:09:22.185Z,18.77
2018-01-07T20:11:52.435Z,14.80
2018-01-07T20:14:23.277Z,16.93
2018-01-07T20:16:52.577Z,20.70
2018-01-07T20:19:21.697Z,17.60
2018-01-07T20:21:51.766Z,15.37
2018-01-07T20:24:21.148Z,18.00
2018-01-07T20:26:50.401Z,17.70
2018-01-07T20:29:20.319Z,18.20
2018-01-07T20:31:49.155Z,20.20
2018-01-07T20:34:17.999Z,20.63
2018-01-07T20:36:49.390Z,20.10
2018-01-07T20:39:19.437Z,20.30
2018-01-07T20:41:48.542Z,17.23
2018-01-07T20:44:17.471Z,19.10
2018-01-07T20:46:46.517Z,22.70
2018-01-07T20:49:15.494Z,20.43
2018-01-07T20:51:44.922Z,17.83
2018-01-07T20:54:13.934Z,14.43
2018-01-07T20:56:42.910Z,13.30
2018-01-07T20:59:12.185Z,15.00
2018-01-07T21:01:41.067Z,19.27
2018-01-07T21:04:10.095Z,14.33
2018-01-07T21:06:42.640Z,17.30
2018-01-07T21:09:11.574Z,15.93
2018-01-07T21:11:40.581Z,14.77
2018-01-07T21:14:09.526Z,12.87
2018-01-07T21:16:38.426Z,9.90
2018-01-07T21:19:07.367Z,9.73
2018-01-07T21:21:36.482Z,7.27
2018-01-07T21:24:05.458Z,7.97
2018-01-07T21:26:34.334Z,7.10
2018-01-07T21:29:04.838Z,8.47
2018-01-07T21:31:33.688Z,6.10
2018-01-07T21:34:02.516Z,5.73
2018-01-07T21:36:31.526Z,7.50
2018-01-07T21:39:00.404Z,9.63
2018-01-07T21:41:29.282Z,7.60
2018-01-07T21:43:59.061Z,7.73
2018-01-07T21:46:27.949Z,5.50
2018-01-07T21:48:56.840Z,5.70
2018-01-07T21:51:25.864Z,8.20
2018-01-07T21:53:54.717Z,5.40
2018-01-07T21:56:23.639Z,5.80
2018-01-07T21:58:52.561Z,7.20
2018-01-07T22:01:33.338Z,7.90
2018-01-07T22:04:02.193Z,8.27
2018-01-07T22:06:43.122Z,8.07
2018-01-07T22:09:12.991Z,6.60
2018-01-07T22:11:43.176Z,8.70
2018-01-07T22:14:12.532Z,5.20
2018-01-07T22:16:42.466Z,4.60
2018-01-07T22:19:11.758Z,8.10
2018-01-07T22:21:41.080Z,5.83
2018-01-07T22:24:11.391Z,4.67
2018-01-07T22:26:40.684Z,9.87
2018-01-07T22:29:11.554Z,8.17
2018-01-07T22:31:40.723Z,7.43
2018-01-07T22:34:10.080Z,5.47
2018-01-07T22:36:40.086Z,5.07
2018-01-07T22:39:09.107Z,5.20
2018-01-07T22:41:38.392Z,7.43
2018-01-07T22:44:09.198Z,9.57
2018-01-07T22:46:38.625Z,9.43
2018-01-07T22:49:07.652Z,3.97
2018-01-07T22:51:36.748Z,4.87
2018-01-07T22:54:05.650Z,4.37
2018-01-07T22:56:34.782Z,4.77
2018-01-07T22:59:04.129Z,8.60
2018-01-07T23:01:33.091Z,6.03
2018-01-07T23:04:02.004Z,4.13
2018-01-07T23:06:31.783Z,7.77
2018-01-07T23:09:00.868Z,4.80
2018-01-07T23:11:29.775Z,5.90
2018-01-07T23:13:58.713Z,4.47
2018-01-07T23:16:27.808Z,6.60
2018-01-07T23:18:56.826Z,4.20
2018-01-07T23:21:25.916Z,4.37
2018-01-07T23:23:54.844Z,4.63
2018-01-07T23:26:23.796Z,5.23
2018-01-07T23:28:53.141Z,5.70
2018-01-07T23:31:22.017Z,6.20
2018-01-07T23:33:51.032Z,6.37
2018-01-07T23:36:21.141Z,7.00
2018-01-07T23:38:50.159Z,8.33
2018-01-07T23:41:19.134Z,6.37
2018-01-07T23:43:48.021Z,7.77
2018-01-07T23:46:16.911Z,7.03
2018-01-07T23:48:45.855Z,6.30
2018-01-07T23:51:14.750Z,5.10
2018-01-07T23:53:43.627Z,6.53
2018-01-07T23:56:12.510Z,4.10
2018-01-07T23:58:43.387Z,5.17
